Time;durP1;ratioP1;P1;durP2;ratioP2;P2;SDS_P1;SDS_P2;PMS_P1;PMS_P2;Temp;Humidity;BMP_temperature;BMP_pressure;BME280_temperature;BME280_humidity;BME280_pressure;Samples;Min_cycle;Max_cycle;Signal;HPM_P1;HPM_P2
2022/09/20 00:01:14;;;;;;;0.17;0.17;;;20.30;56.90;;;;;;5084392;28;20086;-61
2022/09/20 00:03:46;;;;;;;0.10;0.10;;;20.30;56.80;;;;;;5084394;28;20028;-63
2022/09/20 00:06:14;;;;;;;0.32;0.15;;;20.30;56.90;;;;;;5084241;28;20078;-62
2022/09/20 00:08:40;;;;;;;0.20;0.10;;;20.30;56.80;;;;;;5084295;28;20016;-61
2022/09/20 00:11:11;;;;;;;0.00;0.00;;;20.30;56.90;;;;;;5084259;28;20020;-61
2022/09/20 00:13:38;;;;;;;0.10;0.10;;;20.30;56.90;;;;;;5084110;28;20036;-61
2022/09/20 00:16:09;;;;;;;0.17;0.10;;;20.30;56.90;;;;;;5084148;28;20066;-63
2022/09/20 00:18:35;;;;;;;0.17;0.10;;;20.30;56.90;;;;;;5084115;28;20047;-61
2022/09/20 00:21:02;;;;;;;0.00;0.00;;;20.30;56.90;;;;;;5084068;28;20235;-61
2022/09/20 00:23:29;;;;;;;0.17;0.17;;;20.30;56.90;;;;;;5084044;28;20062;-63
2022/09/20 00:26:01;;;;;;;0.10;0.10;;;20.30;56.90;;;;;;5083894;28;20083;-60
2022/09/20 00:28:28;;;;;;;0.10;0.10;;;20.30;56.90;;;;;;5083967;28;20020;-61
2022/09/20 00:30:55;;;;;;;0.10;0.10;;;20.30;56.90;;;;;;5083890;28;20364;-62
2022/09/20 00:33:22;;;;;;;0.00;0.00;;;20.30;57.00;;;;;;5083849;28;20331;-62
2022/09/20 00:35:48;;;;;;;0.20;0.13;;;20.30;56.90;;;;;;5083805;28;20267;-61
2022/09/20 00:38:15;;;;;;;0.10;0.10;;;20.30;56.90;;;;;;5083776;28;20055;-62
2022/09/20 00:40:42;;;;;;;0.00;0.00;;;20.30;56.90;;;;;;5083737;28;20182;-61
2022/09/20 00:43:15;;;;;;;0.20;0.10;;;20.30;56.90;;;;;;5083766;28;20373;-62
2022/09/20 00:45:45;;;;;;;0.03;0.03;;;20.30;56.90;;;;;;5083531;28;20024;-62
2022/09/20 00:48:13;;;;;;;0.10;0.10;;;20.20;56.90;;;;;;5083559;28;20352;-61
2022/09/20 00:50:41;;;;;;;0.10;0.10;;;20.20;56.90;;;;;;5083670;28;20031;-61
2022/09/20 00:53:11;;;;;;;0.15;0.10;;;20.20;56.90;;;;;;5083560;28;20114;-60
2022/09/20 00:55:44;;;;;;;0.00;0.00;;;20.20;56.90;;;;;;5065858;28;20017;-60
2022/09/20 00:58:11;;;;;;;0.00;0.00;;;20.20;56.90;;;;;;5083611;28;20024;-63
2022/09/20 01:00:37;;;;;;;0.20;0.20;;;20.20;56.90;;;;;;5083518;28;20040;-61
2022/09/20 01:03:07;;;;;;;0.10;0.10;;;20.20;56.90;;;;;;5083834;28;20079;-62
2022/09/20 01:05:34;;;;;;;0.00;0.00;;;20.20;56.90;;;;;;5083417;28;20021;-62
2022/09/20 01:08:01;;;;;;;0.08;0.08;;;20.20;56.90;;;;;;5083457;28;20023;-61
2022/09/20 01:10:27;;;;;;;0.55;0.20;;;20.20;56.90;;;;;;5065620;28;20262;-61
2022/09/20 01:12:53;;;;;;;0.10;0.10;;;20.20;56.90;;;;;;5083220;28;20032;-61
2022/09/20 01:15:20;;;;;;;0.17;0.17;;;20.20;56.90;;;;;;5083382;28;20029;-61
2022/09/20 01:17:49;;;;;;;0.00;0.00;;;20.20;56.90;;;;;;5083395;28;20044;-61
2022/09/20 01:20:21;;;;;;;0.40;0.10;;;20.20;56.90;;;;;;5083692;28;20300;-62
2022/09/20 01:23:18;;;;;;;0.10;0.10;;;20.20;56.90;;;;;;5083297;28;20020;-61
2022/09/20 01:25:57;;;;;;;0.10;0.10;;;20.20;57.00;;;;;;5083267;28;20021;-61
2022/09/20 01:28:23;;;;;;;;;;;20.20;56.90;;;;;;5083724;28;20013;-60
2022/09/20 01:31:12;;;;;;;0.55;0.10;;;20.20;56.90;;;;;;5083256;28;19907;-60
2022/09/20 01:33:40;;;;;;;0.00;0.00;;;20.20;56.90;;;;;;5083295;28;20012;-61
2022/09/20 01:36:11;;;;;;;0.10;0.10;;;20.20;56.90;;;;;;5083239;28;20280;-62
2022/09/20 01:38:43;;;;;;;0.10;0.10;;;20.20;56.90;;;;;;5083203;28;20025;-61
2022/09/20 01:41:17;;;;;;;0.08;0.00;;;20.20;56.90;;;;;;5083169;28;20027;-61
2022/09/20 01:43:57;;;;;;;0.00;0.00;;;20.20;56.90;;;;;;5083167;28;20016;-61
2022/09/20 01:46:31;;;;;;;0.35;0.20;;;20.20;56.90;;;;;;5083140;28;20024;-60
2022/09/20 01:49:27;;;;;;;0.10;0.10;;;20.20;57.00;;;;;;5083127;28;20202;-61
2022/09/20 01:52:17;;;;;;;0.00;0.00;;;20.20;56.90;;;;;;5083082;28;20012;-61
2022/09/20 01:55:01;;;;;;;0.15;0.10;;;20.10;56.90;;;;;;5083030;28;20212;-63
2022/09/20 01:57:55;;;;;;;0.10;0.10;;;20.20;56.90;;;;;;5083047;28;20039;-61
2022/09/20 02:00:25;;;;;;;0.10;0.10;;;20.10;56.90;;;;;;5086772;28;20267;-60
2022/09/20 02:03:08;;;;;;;0.20;0.20;;;20.10;56.90;;;;;;5086728;28;20020;-61
2022/09/20 02:06:23;;;;;;;0.20;0.20;;;20.10;56.90;;;;;;5086847;28;20021;-61
2022/09/20 02:09:01;;;;;;;0.05;0.00;;;20.10;56.90;;;;;;5081479;28;20342;-62
2022/09/20 02:11:53;;;;;;;0.17;0.17;;;20.10;56.90;;;;;;5086641;28;20016;-61
2022/09/20 02:14:31;;;;;;;0.00;0.00;;;20.10;56.90;;;;;;5086430;28;20654;-61
2022/09/20 02:17:17;;;;;;;0.20;0.20;;;20.10;56.90;;;;;;5086479;28;20036;-62
2022/09/20 02:20:07;;;;;;;0.30;0.20;;;20.10;56.90;;;;;;5086447;28;20032;-62
2022/09/20 02:22:45;;;;;;;0.00;0.00;;;20.10;56.90;;;;;;5086600;28;20091;-62
2022/09/20 02:25:11;;;;;;;;;;;20.10;57.00;;;;;;5086716;28;20304;-62
2022/09/20 02:27:59;;;;;;;0.17;0.08;;;20.10;56.90;;;;;;5086301;28;19900;-62
2022/09/20 02:30:30;;;;;;;0.00;0.00;;;20.10;56.90;;;;;;5086238;28;20080;-60
2022/09/20 02:33:07;;;;;;;0.10;0.10;;;20.10;56.90;;;;;;5086179;28;20024;-62
2022/09/20 02:35:59;;;;;;;0.03;0.03;;;20.10;56.90;;;;;;5086096;28;20024;-61
2022/09/20 02:38:38;;;;;;;0.05;0.00;;;20.10;57.00;;;;;;5086107;28;20095;-60
2022/09/20 02:41:25;;;;;;;0.10;0.10;;;20.10;57.00;;;;;;5086036;28;20016;-61
2022/09/20 02:44:16;;;;;;;0.00;0.00;;;20.10;57.00;;;;;;5085980;28;20028;-61
2022/09/20 02:47:20;;;;;;;0.10;0.10;;;20.10;57.00;;;;;;5085922;28;20276;-62
2022/09/20 02:49:56;;;;;;;0.10;0.10;;;20.10;57.00;;;;;;5085857;28;20020;-62
2022/09/20 02:52:46;;;;;;;0.10;0.10;;;20.10;57.00;;;;;;5086105;28;20023;-62
2022/09/20 02:55:31;;;;;;;0.10;0.10;;;20.00;56.90;;;;;;5085775;28;20259;-61
2022/09/20 02:58:06;;;;;;;0.10;0.10;;;20.00;57.00;;;;;;5085791;28;20020;-60
2022/09/20 03:00:41;;;;;;;0.10;0.10;;;20.10;57.00;;;;;;5085684;28;20028;-62
2022/09/20 03:03:18;;;;;;;0.10;0.10;;;20.00;57.00;;;;;;5085605;28;20016;-61
2022/09/20 03:06:01;;;;;;;0.13;0.10;;;20.00;56.90;;;;;;5085534;28;20024;-62
2022/09/20 03:08:53;;;;;;;0.35;0.20;;;20.00;57.00;;;;;;5085521;28;20088;-61
2022/09/20 03:11:45;;;;;;;0.10;0.10;;;20.00;56.90;;;;;;5085491;28;20020;-61
2022/09/20 03:14:17;;;;;;;0.10;0.10;;;20.00;57.00;;;;;;5085377;28;20036;-61
2022/09/20 03:17:08;;;;;;;0.17;0.10;;;20.00;56.90;;;;;;5085618;28;20271;-62
2022/09/20 03:19:42;;;;;;;0.10;0.10;;;20.00;57.00;;;;;;5085322;28;20320;-62
2022/09/20 03:22:40;;;;;;;0.00;0.00;;;20.00;57.00;;;;;;5085327;28;20095;-63
2022/09/20 03:25:48;;;;;;;0.10;0.10;;;20.00;57.00;;;;;;5085134;28;20016;-62
2022/09/20 03:28:24;;;;;;;0.20;0.10;;;20.00;57.00;;;;;;5056472;28;20213;-62
2022/09/20 03:31:11;;;;;;;0.20;0.10;;;20.00;57.00;;;;;;5085119;28;20013;-61
2022/09/20 03:34:22;;;;;;;0.20;0.10;;;20.00;57.00;;;;;;5085007;28;20013;-62
2022/09/20 03:37:06;;;;;;;0.10;0.10;;;20.00;57.00;;;;;;5084607;28;20028;-62
2022/09/20 03:40:03;;;;;;;0.30;0.30;;;20.00;57.00;;;;;;5084884;28;20309;-62
2022/09/20 03:42:29;;;;;;;1.55;0.10;;;20.00;57.00;;;;;;5084840;28;20217;-62
2022/09/20 03:45:26;;;;;;;0.10;0.10;;;20.00;57.00;;;;;;5084699;28;20027;-62
2022/09/20 03:48:43;;;;;;;0.45;0.25;;;20.00;57.00;;;;;;5084681;28;20209;-62
2022/09/20 03:51:27;;;;;;;0.10;0.10;;;20.00;57.00;;;;;;5081587;28;20347;-61
2022/09/20 03:54:17;;;;;;;0.10;0.10;;;19.90;57.00;;;;;;5084581;28;20024;-61
2022/09/20 03:57:05;;;;;;;0.10;0.10;;;20.00;57.00;;;;;;5084550;28;20047;-61
2022/09/20 03:59:54;;;;;;;0.20;0.20;;;19.90;57.00;;;;;;5084518;28;20025;-61
2022/09/20 04:02:41;;;;;;;0.20;0.10;;;19.90;57.00;;;;;;5083575;28;20036;-62
2022/09/20 04:05:37;;;;;;;0.10;0.10;;;19.90;57.00;;;;;;5084333;28;20189;-62
2022/09/20 04:08:06;;;;;;;0.10;0.10;;;19.90;57.00;;;;;;5083875;28;20043;-61
2022/09/20 04:10:40;;;;;;;0.10;0.10;;;19.90;57.00;;;;;;5084572;28;20016;-62
2022/09/20 04:13:18;;;;;;;0.10;0.10;;;19.90;57.00;;;;;;5084041;28;20111;-62
2022/09/20 04:16:11;;;;;;;0.20;0.10;;;19.90;57.00;;;;;;5084511;28;20028;-61
2022/09/20 04:18:47;;;;;;;0.10;0.10;;;19.90;57.00;;;;;;5084129;28;20304;-62
2022/09/20 04:21:41;;;;;;;0.10;0.10;;;19.90;57.00;;;;;;5083346;28;20083;-62
2022/09/20 04:24:28;;;;;;;0.08;0.08;;;19.90;57.00;;;;;;5083408;28;20217;-61
2022/09/20 04:27:26;;;;;;;1.27;0.00;;;19.90;57.00;;;;;;5084011;28;20075;-62
2022/09/20 04:30:06;;;;;;;0.10;0.08;;;19.90;57.00;;;;;;5083978;28;20074;-63
2022/09/20 04:32:43;;;;;;;0.20;0.10;;;19.90;57.00;;;;;;5083930;28;20016;-62
2022/09/20 04:38:04;;;;;;;0.00;0.00;;;19.90;57.00;;;;;;5083874;28;20104;-61
2022/09/20 04:40:58;;;;;;;0.00;0.00;;;19.90;57.00;;;;;;5083778;28;20028;-61
2022/09/20 04:44:01;;;;;;;0.20;0.20;;;19.90;57.00;;;;;;5084051;28;20024;-61
2022/09/20 04:46:45;;;;;;;0.10;0.10;;;19.90;57.00;;;;;;5083677;28;20024;-62
2022/09/20 04:49:35;;;;;;;0.15;0.15;;;19.90;57.00;;;;;;5083744;28;20027;-61
2022/09/20 04:52:33;;;;;;;0.20;0.20;;;19.90;57.00;;;;;;5083668;28;20054;-62
2022/09/20 04:55:08;;;;;;;0.00;0.00;;;19.90;57.00;;;;;;5083721;28;20055;-60
2022/09/20 04:57:52;;;;;;;0.10;0.10;;;19.90;57.00;;;;;;5083620;28;20016;-61
2022/09/20 05:00:23;;;;;;;0.13;0.03;;;19.90;57.00;;;;;;5083621;28;20308;-62
2022/09/20 05:03:17;;;;;;;0.17;0.10;;;19.90;57.00;;;;;;5065638;28;20040;-60
2022/09/20 05:06:04;;;;;;;0.00;0.00;;;19.90;56.90;;;;;;5083419;28;20251;-61
2022/09/20 05:08:41;;;;;;;0.10;0.10;;;19.90;56.90;;;;;;5083503;28;20020;-62
2022/09/20 05:11:20;;;;;;;0.10;0.10;;;19.90;56.90;;;;;;5083479;28;20043;-63
2022/09/20 05:14:23;;;;;;;0.00;0.00;;;19.90;56.90;;;;;;5083311;28;20044;-62
2022/09/20 05:17:02;;;;;;;0.10;0.10;;;19.90;57.00;;;;;;5083445;28;20020;-61
2022/09/20 05:19:47;;;;;;;0.05;0.03;;;19.80;56.90;;;;;;5083385;28;20025;-63
2022/09/20 05:22:33;;;;;;;0.00;0.00;;;19.90;56.90;;;;;;5083632;28;20078;-61
2022/09/20 05:25:43;;;;;;;0.10;0.10;;;19.90;56.90;;;;;;5082365;28;20059;-61
2022/09/20 05:28:12;;;;;;;0.03;0.03;;;19.90;56.90;;;;;;5067815;28;20321;-61
2022/09/20 05:30:43;;;;;;;;;;;19.90;56.90;;;;;;5083728;28;20016;-61
2022/09/20 05:33:37;;;;;;;0.17;0.17;;;19.90;57.00;;;;;;5085696;28;19937;-61
2022/09/20 05:36:39;;;;;;;0.10;0.10;;;19.90;57.00;;;;;;5087289;28;20020;-61
2022/09/20 05:39:37;;;;;;;0.15;0.15;;;19.90;57.00;;;;;;5069391;28;20038;-62
2022/09/20 05:42:21;;;;;;;0.10;0.10;;;19.90;57.00;;;;;;5087147;28;20020;-61
2022/09/20 05:45:12;;;;;;;0.00;0.00;;;19.90;57.00;;;;;;5087358;28;20083;-62
2022/09/20 05:48:19;;;;;;;0.00;0.00;;;19.90;56.90;;;;;;5087103;28;20042;-62
2022/09/20 05:50:50;;;;;;;0.10;0.10;;;19.90;56.90;;;;;;5086964;28;20017;-62
2022/09/20 05:53:52;;;;;;;0.00;0.00;;;19.90;56.90;;;;;;5086978;28;20016;-62
2022/09/20 05:56:45;;;;;;;0.10;0.00;;;19.90;56.90;;;;;;5086872;28;20044;-62
2022/09/20 05:59:29;;;;;;;0.10;0.10;;;19.90;57.00;;;;;;5086815;28;20028;-61
2022/09/20 06:02:15;;;;;;;0.10;0.10;;;19.90;56.90;;;;;;5086779;28;20047;-61
2022/09/20 06:04:55;;;;;;;0.13;0.13;;;19.90;56.90;;;;;;5086654;28;20076;-61
2022/09/20 06:07:33;;;;;;;0.10;0.10;;;19.90;56.90;;;;;;5086663;28;20097;-61
2022/09/20 06:10:41;;;;;;;0.20;0.10;;;19.90;57.50;;;;;;5086643;28;20225;-61
2022/09/20 06:13:23;;;;;;;0.10;0.10;;;19.90;56.80;;;;;;5078176;28;20109;-61
2022/09/20 06:16:06;;;;;;;0.28;0.20;;;19.90;56.90;;;;;;5086501;28;20043;-60
2022/09/20 06:18:56;;;;;;;0.15;0.15;;;19.90;56.90;;;;;;5086453;28;20020;-62
2022/09/20 06:21:48;;;;;;;0.13;0.13;;;19.90;56.80;;;;;;5086379;28;20025;-62
2022/09/20 06:24:43;;;;;;;0.20;0.10;;;19.90;56.80;;;;;;5083035;28;20399;-62
2022/09/20 06:27:23;;;;;;;0.00;0.00;;;19.90;56.90;;;;;;5085543;28;20088;-60
2022/09/20 06:29:58;;;;;;;0.10;0.10;;;19.90;56.90;;;;;;5086297;28;20023;-62
2022/09/20 06:32:24;;;;;;;0.10;0.10;;;19.90;56.80;;;;;;5086218;28;20016;-62
2022/09/20 06:34:51;;;;;;;0.10;0.10;;;19.90;56.90;;;;;;5086147;28;20016;-62
2022/09/20 06:43:30;;;;;;;0.20;0.20;;;19.90;56.80;;;;;;5085698;28;20126;-61
2022/09/20 06:45:56;;;;;;;0.30;0.30;;;19.90;56.70;;;;;;5085453;28;20017;-61
2022/09/20 06:48:23;;;;;;;0.10;0.10;;;19.90;56.70;;;;;;5085897;28;20012;-62
2022/09/20 06:50:51;;;;;;;0.17;0.13;;;19.90;56.70;;;;;;5085890;28;20074;-61
2022/09/20 06:53:28;;;;;;;0.10;0.10;;;19.90;56.70;;;;;;5085846;28;20035;-60
2022/09/20 06:55:54;;;;;;;0.10;0.10;;;19.90;56.70;;;;;;5085844;28;20043;-63
2022/09/20 06:58:20;;;;;;;0.10;0.10;;;19.90;56.70;;;;;;5085737;28;20382;-62
2022/09/20 07:00:47;;;;;;;0.00;0.00;;;19.90;56.70;;;;;;5086034;28;20043;-63
2022/09/20 07:03:12;;;;;;;0.10;0.10;;;19.90;56.80;;;;;;5085702;28;20027;-62
2022/09/20 07:05:39;;;;;;;0.10;0.10;;;19.90;56.80;;;;;;5085551;28;20021;-62
2022/09/20 07:08:05;;;;;;;0.22;0.08;;;19.90;56.70;;;;;;5085587;28;20354;-63
2022/09/20 07:10:30;;;;;;;0.10;0.10;;;19.90;56.80;;;;;;5085474;28;20023;-60
2022/09/20 07:13:00;;;;;;;0.10;0.10;;;19.90;56.70;;;;;;5085328;28;20049;-62
2022/09/20 07:15:27;;;;;;;0.00;0.00;;;19.90;56.80;;;;;;5085773;28;20035;-62
2022/09/20 07:17:54;;;;;;;0.15;0.10;;;19.90;57.50;;;;;;5085667;28;20022;-62
2022/09/20 07:20:20;;;;;;;0.20;0.20;;;19.90;56.80;;;;;;5085578;28;20024;-61
2022/09/20 07:22:47;;;;;;;0.10;0.10;;;19.90;56.90;;;;;;5085281;28;20012;-62
2022/09/20 07:25:13;;;;;;;0.08;0.08;;;19.90;56.70;;;;;;5085168;28;20106;-62
2022/09/20 07:27:39;;;;;;;0.65;0.10;;;19.90;56.60;;;;;;5085137;28;20012;-61
2022/09/20 07:30:07;;;;;;;0.22;0.20;;;20.00;56.50;;;;;;5085099;28;20020;-60
2022/09/20 07:32:32;;;;;;;0.10;0.10;;;20.00;56.40;;;;;;5085137;28;20008;-62
2022/09/20 07:34:58;;;;;;;0.10;0.10;;;20.00;56.50;;;;;;5085013;28;20069;-61
2022/09/20 07:37:24;;;;;;;0.20;0.20;;;19.90;56.80;;;;;;5084992;28;20027;-62
2022/09/20 07:39:50;;;;;;;0.15;0.08;;;19.90;57.00;;;;;;5084971;28;20230;-62
2022/09/20 07:42:16;;;;;;;0.30;0.10;;;19.80;57.10;;;;;;5085099;28;20020;-62
2022/09/20 07:44:42;;;;;;;0.03;0.03;;;19.80;57.20;;;;;;5084779;28;20216;-62
2022/09/20 07:47:13;;;;;;;0.10;0.08;;;19.90;57.00;;;;;;5084751;28;20012;-62
2022/09/20 07:49:39;;;;;;;0.00;0.00;;;19.90;56.90;;;;;;5084788;28;20017;-63
2022/09/20 07:52:06;;;;;;;0.10;0.10;;;19.90;56.80;;;;;;5084664;28;20024;-61
2022/09/20 07:54:32;;;;;;;0.10;0.10;;;19.90;56.70;;;;;;5084602;28;20211;-63
2022/09/20 07:56:59;;;;;;;0.13;0.10;;;20.00;56.70;;;;;;5084482;28;20088;-63
2022/09/20 07:59:24;;;;;;;0.20;0.20;;;20.00;56.60;;;;;;5084531;28;20039;-62
2022/09/20 08:01:50;;;;;;;0.10;0.10;;;20.00;56.60;;;;;;5084497;28;20043;-62
2022/09/20 08:04:16;;;;;;;0.17;0.17;;;20.00;56.60;;;;;;5084351;28;20017;-62
2022/09/20 08:06:44;;;;;;;0.10;0.10;;;20.10;56.50;;;;;;5084375;28;20012;-62
2022/09/20 08:09:11;;;;;;;0.10;0.10;;;20.00;56.50;;;;;;5084329;28;20044;-62
2022/09/20 08:11:38;;;;;;;0.03;0.00;;;20.10;56.50;;;;;;5084266;28;20017;-61
2022/09/20 08:14:04;;;;;;;0.10;0.10;;;20.00;56.50;;;;;;5084090;28;20202;-62
2022/09/20 08:16:31;;;;;;;0.15;0.15;;;20.00;56.50;;;;;;5084180;28;20327;-62
2022/09/20 08:18:59;;;;;;;0.20;0.20;;;20.00;56.60;;;;;;5084153;28;20071;-61
2022/09/20 08:21:30;;;;;;;0.20;0.20;;;20.00;56.60;;;;;;5084100;28;20017;-61
2022/09/20 08:23:56;;;;;;;0.10;0.10;;;20.00;56.60;;;;;;5084086;28;20212;-62
2022/09/20 08:26:24;;;;;;;0.10;0.10;;;20.00;56.60;;;;;;5083928;28;20024;-61
2022/09/20 08:28:57;;;;;;;0.10;0.10;;;20.00;56.60;;;;;;5083960;28;20351;-61
2022/09/20 08:31:25;;;;;;;0.73;0.30;;;20.00;56.60;;;;;;5083947;28;20093;-60
2022/09/20 08:33:52;;;;;;;0.10;0.10;;;20.10;56.50;;;;;;5083942;28;20216;-61
2022/09/20 08:36:25;;;;;;;0.00;0.00;;;20.10;56.50;;;;;;5083852;28;20028;-62
2022/09/20 08:38:52;;;;;;;0.10;0.10;;;20.10;56.40;;;;;;5083850;28;20028;-60
2022/09/20 08:41:30;;;;;;;0.00;0.00;;;20.10;56.40;;;;;;5083833;28;20020;-62
2022/09/20 08:44:25;;;;;;;0.15;0.10;;;20.10;56.40;;;;;;5083830;28;20023;-61
2022/09/20 08:47:14;;;;;;;0.10;0.10;;;20.10;56.50;;;;;;5077507;28;20037;-61
2022/09/20 08:49:39;;;;;;;;;;;20.10;56.40;;;;;;5084499;28;20020;-62
2022/09/20 08:52:10;;;;;;;0.15;0.15;;;20.10;56.40;;;;;;5083658;28;20188;-62
2022/09/20 08:54:35;;;;;;;0.15;0.10;;;20.10;56.30;;;;;;5083934;28;20054;-62
2022/09/20 08:57:13;;;;;;;0.10;0.10;;;20.10;56.30;;;;;;5083620;28;20239;-62
2022/09/20 08:59:39;;;;;;;0.10;0.10;;;20.20;56.30;;;;;;5083771;28;20012;-61
2022/09/20 09:02:17;;;;;;;0.13;0.13;;;20.20;56.30;;;;;;5083547;28;20020;-61
2022/09/20 09:04:44;;;;;;;0.70;0.15;;;20.10;56.40;;;;;;5083486;28;20020;-62
2022/09/20 09:07:20;;;;;;;0.10;0.10;;;20.10;56.40;;;;;;5083027;28;20084;-62
2022/09/20 09:09:50;;;;;;;0.00;0.00;;;20.10;56.60;;;;;;5083558;28;20254;-62
2022/09/20 09:12:30;;;;;;;0.10;0.10;;;20.10;56.60;;;;;;5083543;28;20217;-63
2022/09/20 09:15:25;;;;;;;0.10;0.10;;;20.10;56.60;;;;;;5083473;28;20016;-62
2022/09/20 09:17:52;;;;;;;0.17;0.17;;;20.10;56.50;;;;;;5080628;28;20028;-61
2022/09/20 09:20:22;;;;;;;0.10;0.10;;;20.10;56.50;;;;;;5083364;28;20040;-62
2022/09/20 09:23:01;;;;;;;0.10;0.10;;;20.10;56.60;;;;;;5083618;28;20016;-62
2022/09/20 09:25:33;;;;;;;0.10;0.10;;;20.00;56.60;;;;;;5083304;28;20085;-61
2022/09/20 09:28:11;;;;;;;0.10;0.10;;;20.00;56.80;;;;;;5083588;28;20016;-61
2022/09/20 09:30:39;;;;;;;0.10;0.10;;;20.00;56.80;;;;;;5083361;28;20012;-61
2022/09/20 09:33:27;;;;;;;0.13;0.00;;;20.00;56.80;;;;;;5083258;28;20023;-61
2022/09/20 09:36:04;;;;;;;0.10;0.10;;;20.00;56.80;;;;;;5065385;28;20048;-60
2022/09/20 09:38:33;;;;;;;0.15;0.15;;;20.00;56.80;;;;;;5083269;28;20331;-62
2022/09/20 09:41:02;;;;;;;0.10;0.10;;;20.00;56.70;;;;;;5083443;28;20358;-62
2022/09/20 09:43:34;;;;;;;0.10;0.10;;;20.00;56.70;;;;;;5083169;28;20060;-62
2022/09/20 09:46:20;;;;;;;0.20;0.10;;;20.00;56.70;;;;;;5083003;28;20021;-63
2022/09/20 09:48:48;;;;;;;0.10;0.10;;;20.00;56.80;;;;;;5083145;28;20189;-62
2022/09/20 09:51:18;;;;;;;;;;;20.00;56.90;;;;;;5083490;28;20013;-62
2022/09/20 09:53:47;;;;;;;0.05;0.00;;;20.00;56.90;;;;;;5083088;28;19942;-61
2022/09/20 09:56:25;;;;;;;;;;;20.00;56.80;;;;;;5083443;28;20209;-61
2022/09/20 09:58:56;;;;;;;;;;;20.10;56.80;;;;;;5083409;28;19975;-61
2022/09/20 10:02:01;;;;;;;0.10;0.10;;;20.00;56.70;;;;;;5083002;28;19947;-63
2022/09/20 10:04:56;;;;;;;0.17;0.10;;;20.10;56.80;;;;;;5082899;28;20043;-62
2022/09/20 10:07:28;;;;;;;0.10;0.10;;;20.00;56.80;;;;;;5082956;28;20019;-61
2022/09/20 10:10:03;;;;;;;0.20;0.20;;;20.00;56.80;;;;;;5082927;28;20209;-62
2022/09/20 10:12:35;;;;;;;0.20;0.17;;;20.00;56.90;;;;;;5082707;28;20040;-61
2022/09/20 10:15:23;;;;;;;0.15;0.15;;;20.00;56.90;;;;;;5082875;28;20312;-60
2022/09/20 10:18:16;;;;;;;0.10;0.00;;;20.00;56.80;;;;;;5065069;28;20255;-60
2022/09/20 10:21:02;;;;;;;0.10;0.10;;;20.00;56.80;;;;;;5085606;28;20021;-61
2022/09/20 10:24:00;;;;;;;0.10;0.10;;;20.00;57.00;;;;;;5086382;28;20066;-62
2022/09/20 10:26:52;;;;;;;0.20;0.20;;;20.00;57.00;;;;;;5086203;28;20241;-63
2022/09/20 10:29:58;;;;;;;0.10;0.10;;;20.00;56.90;;;;;;5078018;28;20037;-62
2022/09/20 10:32:36;;;;;;;0.10;0.10;;;20.00;56.90;;;;;;5085669;28;20381;-61
2022/09/20 10:35:28;;;;;;;0.10;0.10;;;20.00;56.90;;;;;;5086231;28;20024;-62
2022/09/20 10:38:35;;;;;;;0.05;0.05;;;20.00;56.90;;;;;;5086201;28;20020;-62
2022/09/20 10:44:05;;;;;;;0.20;0.20;;;20.10;56.80;;;;;;5086122;28;20216;-62
2022/09/20 10:46:52;;;;;;;0.38;0.10;;;20.10;56.80;;;;;;5085949;28;20028;-60
2022/09/20 10:49:39;;;;;;;0.10;0.10;;;20.10;56.80;;;;;;5085993;28;20021;-62
2022/09/20 10:52:39;;;;;;;0.07;0.07;;;20.10;56.70;;;;;;5085925;28;20247;-62
2022/09/20 10:55:44;;;;;;;0.52;0.20;;;20.20;56.70;;;;;;5085827;28;20047;-62
2022/09/20 10:58:29;;;;;;;0.03;0.03;;;20.10;56.80;;;;;;5086134;28;20227;-61
2022/09/20 11:01:13;;;;;;;0.10;0.10;;;20.10;56.90;;;;;;5085996;28;20016;-61
2022/09/20 11:04:12;;;;;;;0.20;0.20;;;20.10;56.90;;;;;;5085681;28;20020;-60
2022/09/20 11:06:56;;;;;;;0.20;0.20;;;20.10;56.70;;;;;;5085582;28;20020;-62
2022/09/20 11:09:28;;;;;;;0.20;0.20;;;20.10;56.90;;;;;;5085540;28;20020;-62
2022/09/20 11:12:09;;;;;;;0.20;0.20;;;20.10;56.80;;;;;;5085393;28;20330;-62
2022/09/20 11:14:41;;;;;;;0.10;0.05;;;20.20;56.70;;;;;;5085503;28;20029;-63
2022/09/20 11:17:25;;;;;;;0.10;0.10;;;20.20;56.60;;;;;;5085415;28;20023;-60
2022/09/20 11:20:06;;;;;;;0.10;0.10;;;20.20;57.30;;;;;;5085386;28;20025;-61
2022/09/20 11:23:14;;;;;;;0.00;0.00;;;20.20;56.80;;;;;;5085313;28;20027;-61
2022/09/20 11:25:46;;;;;;;0.10;0.10;;;20.20;56.60;;;;;;5023395;28;20088;-62
2022/09/20 11:28:27;;;;;;;0.20;0.10;;;20.20;56.80;;;;;;5077322;28;20028;-62
2022/09/20 11:31:14;;;;;;;0.28;0.10;;;20.20;56.80;;;;;;5084724;28;20346;-61
2022/09/20 11:33:51;;;;;;;0.10;0.10;;;20.20;57.00;;;;;;5085107;28;20020;-62
2022/09/20 11:36:38;;;;;;;0.10;0.10;;;20.10;56.80;;;;;;5085044;28;20020;-62
2022/09/20 11:39:28;;;;;;;0.10;0.10;;;20.20;56.70;;;;;;5084974;28;20016;-62
2022/09/20 11:41:58;;;;;;;0.10;0.10;;;20.30;56.50;;;;;;5055709;28;20029;-64
2022/09/20 11:44:25;;;;;;;0.15;0.10;;;20.30;56.60;;;;;;5084820;28;20087;-62
2022/09/20 11:47:02;;;;;;;0.10;0.10;;;20.30;56.70;;;;;;5084807;28;20015;-61
2022/09/20 11:49:49;;;;;;;0.10;0.10;;;20.20;56.70;;;;;;5084813;28;20012;-62
2022/09/20 11:52:40;;;;;;;0.20;0.08;;;20.20;56.80;;;;;;5084678;28;20017;-60
2022/09/20 11:55:41;;;;;;;0.15;0.15;;;20.20;56.80;;;;;;5057186;28;20039;-61
2022/09/20 11:58:21;;;;;;;0.10;0.10;;;20.30;56.70;;;;;;5084564;28;20016;-61
2022/09/20 12:00:51;;;;;;;0.32;0.10;;;20.30;56.60;;;;;;5084579;28;20020;-61
2022/09/20 12:03:38;;;;;;;0.08;0.08;;;20.30;56.60;;;;;;5084798;28;20117;-60
2022/09/20 12:06:23;;;;;;;0.00;0.00;;;20.20;56.80;;;;;;5084436;28;20246;-62
2022/09/20 12:08:50;;;;;;;0.10;0.10;;;20.20;56.90;;;;;;5084407;28;20024;-60
2022/09/20 12:11:26;;;;;;;0.10;0.10;;;20.10;56.90;;;;;;5084329;28;20012;-62
2022/09/20 12:13:56;;;;;;;0.15;0.15;;;20.10;56.90;;;;;;5084090;28;20047;-61
2022/09/20 12:16:43;;;;;;;0.52;0.00;;;20.10;57.00;;;;;;5084274;28;20093;-62
2022/09/20 12:19:14;;;;;;;1.45;0.20;;;20.10;57.10;;;;;;5084174;28;20020;-63
2022/09/20 12:21:58;;;;;;;0.10;0.10;;;20.10;57.00;;;;;;5084186;28;20082;-62
2022/09/20 12:24:36;;;;;;;0.63;0.10;;;20.10;57.10;;;;;;5084019;28;20040;-61
2022/09/20 12:27:27;;;;;;;0.10;0.10;;;20.10;57.10;;;;;;5084113;28;20085;-61
2022/09/20 12:30:17;;;;;;;0.00;0.00;;;20.10;57.10;;;;;;5084053;28;20024;-61
2022/09/20 12:32:50;;;;;;;0.20;0.20;;;20.10;57.10;;;;;;5083758;28;20022;-62
2022/09/20 12:35:34;;;;;;;0.10;0.10;;;20.10;57.20;;;;;;5083915;28;20020;-63
2022/09/20 12:38:19;;;;;;;0.00;0.00;;;20.10;57.10;;;;;;5083910;28;20021;-61
2022/09/20 12:40:59;;;;;;;0.10;0.10;;;20.10;57.10;;;;;;5066067;28;20012;-61
2022/09/20 12:43:28;;;;;;;0.08;0.08;;;20.10;57.10;;;;;;5083121;28;20088;-61
2022/09/20 12:45:55;;;;;;;0.08;0.08;;;20.10;57.60;;;;;;5083713;28;20024;-62
2022/09/20 12:48:21;;;;;;;0.20;0.10;;;20.10;57.00;;;;;;5083702;28;20346;-61
2022/09/20 12:54:08;;;;;;;0.13;0.10;;;20.10;56.90;;;;;;5083748;28;20019;-62
2022/09/20 12:56:37;;;;;;;0.10;0.10;;;20.10;56.90;;;;;;5083640;28;20020;-62
2022/09/20 12:59:17;;;;;;;0.10;0.10;;;20.20;56.90;;;;;;5083559;28;20118;-61
2022/09/20 13:01:44;;;;;;;0.08;0.08;;;20.20;56.80;;;;;;5083615;28;20035;-60
2022/09/20 13:04:39;;;;;;;0.10;0.10;;;20.40;56.50;;;;;;5083568;28;20024;-62
2022/09/20 13:07:44;;;;;;;0.13;0.10;;;20.40;56.20;;;;;;5083503;28;20025;-60
2022/09/20 13:10:25;;;;;;;0.10;0.10;;;20.40;56.40;;;;;;5072549;28;20321;-61
2022/09/20 13:12:56;;;;;;;0.13;0.13;;;20.30;56.60;;;;;;5083330;28;20051;-63
2022/09/20 13:15:22;;;;;;;0.00;0.00;;;20.30;56.80;;;;;;5083485;28;20012;-62
2022/09/20 13:17:52;;;;;;;0.10;0.10;;;20.30;56.70;;;;;;5083403;28;20062;-62
2022/09/20 13:20:33;;;;;;;0.35;0.22;;;20.30;56.70;;;;;;5083410;28;20043;-63
2022/09/20 13:23:00;;;;;;;0.25;0.20;;;20.20;56.80;;;;;;5083383;28;20017;-62
2022/09/20 13:25:27;;;;;;;0.10;0.10;;;20.20;56.90;;;;;;5083320;28;20419;-63
2022/09/20 13:28:19;;;;;;;0.10;0.10;;;20.20;56.90;;;;;;5083312;28;20013;-62
2022/09/20 13:30:44;;;;;;;0.20;0.15;;;20.20;57.00;;;;;;5075095;28;20073;-61
2022/09/20 13:33:16;;;;;;;0.10;0.10;;;20.10;57.00;;;;;;5083233;28;20026;-62
2022/09/20 13:35:45;;;;;;;0.00;0.00;;;20.10;57.00;;;;;;5083253;28;20020;-63
2022/09/20 13:38:13;;;;;;;0.20;0.20;;;20.10;57.00;;;;;;5083205;28;20025;-62
2022/09/20 13:40:46;;;;;;;0.13;0.13;;;20.10;57.10;;;;;;5083208;28;20020;-62
2022/09/20 13:43:15;;;;;;;0.10;0.10;;;20.10;57.00;;;;;;5083458;28;20020;-62
2022/09/20 13:45:42;;;;;;;0.10;0.10;;;20.10;57.00;;;;;;5083046;28;20031;-60
2022/09/20 13:48:08;;;;;;;0.03;0.03;;;20.10;57.00;;;;;;5083101;28;20024;-62
2022/09/20 13:50:36;;;;;;;0.08;0.08;;;20.10;57.00;;;;;;5083102;28;20343;-62
2022/09/20 13:53:14;;;;;;;0.10;0.10;;;20.10;56.90;;;;;;5083378;28;20031;-63
2022/09/20 13:55:41;;;;;;;;;;;20.10;56.90;;;;;;5087392;28;20312;-62
2022/09/20 13:58:22;;;;;;;0.20;0.10;;;20.10;57.00;;;;;;5069007;28;20097;-60
2022/09/20 14:00:57;;;;;;;0.10;0.10;;;20.10;57.10;;;;;;5086893;28;20044;-63